Time;durP1;ratioP1;P1;durP2;ratioP2;P2;SDS_P1;SDS_P2;PMS_P1;PMS_P2;Temp;Humidity;BMP_temperature;BMP_pressure;BME280_temperature;BME280_humidity;BME280_pressure;Samples;Min_cycle;Max_cycle;Signal;HPM_P1;HPM_P2
2023/10/29 00:00:09;;;;;;;4.27;2.90;;;;;;;16.03;72.04;94536.78;5071237;28;20351;-44
2023/10/29 00:02:36;;;;;;;4.50;2.60;;;;;;;16.05;71.93;94543.34;5070784;28;20194;-45
2023/10/29 00:05:03;;;;;;;6.43;2.23;;;;;;;16.05;71.69;94542.53;5071109;28;20631;-46
2023/10/29 00:07:30;;;;;;;4.37;2.27;;;;;;;16.03;71.56;94539.34;5070609;28;21246;-44
2023/10/29 00:09:58;;;;;;;4.33;2.13;;;;;;;16.01;71.40;94539.50;5071046;28;20194;-45
2023/10/29 00:12:25;;;;;;;8.27;2.63;;;;;;;16.07;71.27;94550.13;5069996;28;20182;-45
2023/10/29 00:14:52;;;;;;;3.63;2.00;;;;;;;16.03;71.43;94545.31;5070452;28;20580;-44
2023/10/29 00:17:18;;;;;;;3.53;2.00;;;;;;;16.06;71.38;94551.88;5070526;28;20198;-45
2023/10/29 00:19:45;;;;;;;4.23;2.10;;;;;;;15.99;71.65;94540.69;5070381;28;20179;-43
2023/10/29 00:22:12;;;;;;;4.77;2.53;;;;;;;15.83;72.07;94530.50;5070595;28;20217;-44
2023/10/29 00:24:39;;;;;;;3.87;2.20;;;;;;;16.03;71.72;94555.63;5070302;28;20312;-45
2023/10/29 00:27:07;;;;;;;3.10;2.20;;;;;;;15.99;71.41;94556.94;5070547;28;20233;-46
2023/10/29 00:29:34;;;;;;;4.37;2.40;;;;;;;15.96;71.66;94569.38;5071060;28;20214;-44
2023/10/29 00:32:01;;;;;;;4.40;2.20;;;;;;;15.90;71.97;94560.56;5073476;28;20178;-44
2023/10/29 00:34:27;;;;;;;4.00;2.30;;;;;;;15.83;72.13;94561.44;5072067;28;20649;-44
2023/10/29 00:36:54;;;;;;;5.70;2.50;;;;;;;15.77;72.31;94556.00;5072982;28;20182;-46
2023/10/29 00:39:21;;;;;;;4.00;2.03;;;;;;;15.73;72.88;94561.69;5072028;28;20190;-44
2023/10/29 00:41:48;;;;;;;3.90;2.40;;;;;;;15.65;73.30;94559.94;5071805;28;20658;-44
2023/10/29 00:44:16;;;;;;;3.93;2.43;;;;;;;15.60;73.48;94559.63;5069853;28;20213;-44
2023/10/29 00:46:43;;;;;;;4.47;2.10;;;;;;;15.53;74.11;94554.34;5069936;28;20194;-44
2023/10/29 00:49:10;;;;;;;5.60;2.40;;;;;;;15.52;74.48;94562.25;5070043;28;20263;-43
2023/10/29 00:51:37;;;;;;;4.63;2.10;;;;;;;15.44;74.81;94564.88;5069776;28;20304;-44
2023/10/29 00:54:05;;;;;;;4.13;2.13;;;;;;;15.39;75.30;94567.19;5069631;28;20209;-44
2023/10/29 00:56:32;;;;;;;3.90;2.40;;;;;;;15.31;75.24;94573.19;5069711;28;20178;-43
2023/10/29 00:58:59;;;;;;;7.03;2.50;;;;;;;15.27;75.66;94571.91;5069628;28;20247;-43
2023/10/29 01:01:27;;;;;;;4.77;2.60;;;;;;;15.19;75.81;94570.16;5068119;28;20182;-44
2023/10/29 01:03:54;;;;;;;6.60;2.93;;;;;;;15.11;75.89;94580.53;5049495;28;20183;-44
2023/10/29 01:06:21;;;;;;;5.50;2.23;;;;;;;15.05;75.87;94578.63;5049247;28;20191;-44
2023/10/29 01:08:49;;;;;;;4.17;2.73;;;;;;;15.06;75.75;94593.09;5049600;28;20675;-44
2023/10/29 01:11:15;;;;;;;4.73;2.60;;;;;;;14.95;76.03;94578.81;5049397;28;20264;-42
2023/10/29 01:13:42;;;;;;;5.03;2.60;;;;;;;14.98;76.44;94593.94;5049591;28;20241;-43
2023/10/29 01:16:09;;;;;;;5.40;2.40;;;;;;;14.92;76.68;94594.59;5049411;28;20187;-44
2023/10/29 01:18:37;;;;;;;3.00;2.10;;;;;;;14.86;77.38;94590.13;5049489;28;20183;-44
2023/10/29 01:21:04;;;;;;;5.83;3.50;;;;;;;14.79;77.76;94589.19;5049389;28;20194;-44
2023/10/29 01:23:31;;;;;;;4.00;2.50;;;;;;;14.74;77.92;94581.94;5049019;28;20583;-44
2023/10/29 01:25:59;;;;;;;7.63;2.30;;;;;;;14.68;78.50;94577.47;5049269;28;20706;-44
2023/10/29 01:28:26;;;;;;;8.27;3.17;;;;;;;14.52;78.79;94564.66;5048912;28;20222;-44
2023/10/29 01:30:53;;;;;;;2.83;2.23;;;;;;;14.55;79.04;94582.34;5049094;28;20202;-44
2023/10/29 01:33:20;;;;;;;3.50;2.07;;;;;;;14.43;79.63;94573.31;5048962;28;20617;-45
2023/10/29 01:35:48;;;;;;;5.83;2.50;;;;;;;14.46;80.01;94598.72;5049616;28;20210;-44
2023/10/29 01:38:15;;;;;;;5.70;2.70;;;;;;;14.43;79.65;94591.34;5048941;28;20198;-44
2023/10/29 01:40:41;;;;;;;4.17;2.50;;;;;;;14.42;79.55;94597.44;5049122;28;20187;-44
2023/10/29 01:43:08;;;;;;;4.03;2.87;;;;;;;14.40;79.50;94586.50;5048769;28;20199;-45
2023/10/29 01:45:36;;;;;;;8.90;3.60;;;;;;;14.44;80.02;94598.09;5048964;28;20631;-43
2023/10/29 01:48:03;;;;;;;6.43;3.27;;;;;;;14.46;80.23;94602.06;5048336;28;20214;-44
2023/10/29 01:50:30;;;;;;;7.63;3.00;;;;;;;14.44;80.42;94592.94;5049191;28;20201;-44
2023/10/29 01:52:58;;;;;;;6.53;2.97;;;;;;;14.41;80.98;94594.06;5049288;28;20282;-44
2023/10/29 01:55:25;;;;;;;3.87;2.50;;;;;;;14.37;81.14;94591.97;5048894;28;20187;-44
2023/10/29 01:57:51;;;;;;;4.93;2.70;;;;;;;14.33;81.12;94596.63;5048948;28;20191;-43
2023/10/29 02:00:19;;;;;;;4.63;2.87;;;;;;;14.35;81.47;94596.50;5049166;28;20203;-44
2023/10/29 02:02:47;;;;;;;6.73;2.80;;;;;;;14.34;82.04;94610.31;5049751;28;20195;-43
2023/10/29 02:05:14;;;;;;;5.23;2.70;;;;;;;14.24;82.16;94606.13;5053473;28;20230;-57
2023/10/29 02:07:41;;;;;;;5.10;2.87;;;;;;;14.05;82.16;94576.41;5057335;28;20225;-45
2023/10/29 02:10:09;;;;;;;3.87;2.67;;;;;;;14.19;82.56;94600.66;5051522;28;20210;-44
2023/10/29 02:12:36;;;;;;;7.67;2.67;;;;;;;14.16;83.01;94601.03;5049236;28;20187;-44
2023/10/29 02:15:04;;;;;;;9.80;3.40;;;;;;;14.10;83.26;94609.34;5049136;28;20195;-44
2023/10/29 02:17:31;;;;;;;4.83;2.50;;;;;;;14.06;83.54;94611.44;5049227;28;20485;-44
2023/10/29 02:19:58;;;;;;;4.27;2.57;;;;;;;14.03;83.46;94604.06;5048584;28;20631;-42
2023/10/29 02:22:27;;;;;;;5.47;2.90;;;;;;;14.02;83.66;94607.59;5048765;28;20195;-44
2023/10/29 02:24:54;;;;;;;4.73;2.83;;;;;;;13.97;83.63;94606.47;5048301;28;20227;-45
2023/10/29 02:27:21;;;;;;;7.33;2.70;;;;;;;13.99;84.08;94607.94;5048536;28;20230;-44
2023/10/29 02:29:48;;;;;;;8.87;2.93;;;;;;;13.96;84.15;94607.44;5048280;28;20187;-45
2023/10/29 02:32:15;;;;;;;7.83;2.77;;;;;;;13.96;83.73;94607.44;5048547;28;20665;-43
2023/10/29 02:34:42;;;;;;;6.33;3.00;;;;;;;13.95;83.62;94603.28;5048761;28;20215;-43
2023/10/29 02:37:09;;;;;;;8.07;2.90;;;;;;;13.90;83.71;94602.91;5048612;28;20235;-44
2023/10/29 02:39:37;;;;;;;4.87;2.53;;;;;;;13.85;83.87;94600.84;5049030;28;20195;-44
2023/10/29 02:42:04;;;;;;;6.97;2.73;;;;;;;13.83;83.31;94607.91;5053069;28;20253;-45
2023/10/29 02:44:31;;;;;;;4.87;2.47;;;;;;;13.76;83.25;94602.59;5051645;28;20198;-44
2023/10/29 02:46:58;;;;;;;8.43;3.37;;;;;;;13.79;82.90;94609.19;5049633;28;20195;-44
2023/10/29 02:49:24;;;;;;;5.23;2.63;;;;;;;13.78;82.70;94612.72;5050399;28;20214;-44
2023/10/29 02:51:51;;;;;;;8.10;2.50;;;;;;;13.75;82.66;94608.69;5051332;28;20195;-44
2023/10/29 02:54:18;;;;;;;7.87;2.40;;;;;;;13.59;82.28;94579.59;5051340;28;20264;-45
2023/10/29 02:56:46;;;;;;;5.00;2.73;;;;;;;13.47;82.48;94572.22;5050308;28;20272;-44
2023/10/29 02:59:13;;;;;;;4.40;2.50;;;;;;;13.72;82.13;94613.34;5048882;28;20191;-44
2023/10/29 03:01:39;;;;;;;7.30;3.43;;;;;;;13.66;83.60;94601.16;5051503;28;20209;-45
2023/10/29 03:04:06;;;;;;;9.50;3.70;;;;;;;13.73;84.05;94610.63;5051943;28;20195;-43
2023/10/29 03:06:35;;;;;;;6.67;2.90;;;;;;;13.79;84.43;94619.47;5052234;28;20211;-44
2023/10/29 03:09:02;;;;;;;3.90;2.47;;;;;;;13.78;84.52;94613.53;5052085;28;20604;-44
2023/10/29 03:11:28;;;;;;;4.97;3.00;;;;;;;13.74;84.53;94630.22;5051738;28;20605;-43
2023/10/29 03:13:57;;;;;;;6.07;3.50;;;;;;;13.70;84.69;94633.28;5051802;28;20252;-44
2023/10/29 03:16:24;;;;;;;7.67;3.63;;;;;;;13.66;85.78;94640.50;5053035;28;20190;-42
2023/10/29 03:18:51;;;;;;;5.57;3.83;;;;;;;13.67;86.30;94644.66;5052947;28;20241;-46
2023/10/29 03:21:18;;;;;;;8.13;3.67;;;;;;;13.65;86.72;94635.53;5051643;28;20199;-44
2023/10/29 03:23:45;;;;;;;7.97;3.40;;;;;;;13.67;86.74;94636.97;5051565;28;20195;-44
2023/10/29 03:26:12;;;;;;;6.90;3.70;;;;;;;13.63;86.98;94635.66;5051506;28;20207;-44
2023/10/29 03:28:39;;;;;;;10.80;4.20;;;;;;;13.56;87.58;94632.13;5051403;28;20223;-44
2023/10/29 03:31:13;;;;;;;6.40;3.53;;;;;;;13.48;87.95;94638.06;5051262;28;20297;-43
2023/10/29 03:33:40;;;;;;;10.47;3.97;;;;;;;13.48;88.13;94639.81;5051085;28;20199;-43
2023/10/29 03:36:08;;;;;;;8.40;3.57;;;;;;;13.32;88.26;94622.59;5051422;28;20195;-43
2023/10/29 03:38:34;;;;;;;7.53;3.93;;;;;;;13.38;88.48;94644.25;5050917;28;20195;-44
2023/10/29 03:41:01;;;;;;;7.27;3.63;;;;;;;13.35;88.53;94647.97;5051062;28;20199;-44
2023/10/29 03:43:28;;;;;;;6.90;3.20;;;;;;;13.33;88.97;94646.50;5050789;28;20199;-44
2023/10/29 03:45:55;;;;;;;6.10;3.67;;;;;;;13.23;89.03;94638.94;5051260;28;20222;-44
2023/10/29 03:48:23;;;;;;;11.20;4.60;;;;;;;13.27;89.18;94647.94;5050653;28;20252;-43
2023/10/29 03:50:50;;;;;;;5.10;3.13;;;;;;;13.25;89.49;94660.09;5050798;28;20202;-43
2023/10/29 03:53:16;;;;;;;9.23;3.83;;;;;;;13.19;89.73;94653.00;5050597;28;20206;-42
2023/10/29 03:55:43;;;;;;;7.37;3.80;;;;;;;13.14;89.94;94650.09;5050888;28;20270;-43
2023/10/29 03:58:10;;;;;;;10.37;4.33;;;;;;;13.16;90.04;94655.88;5050564;28;20674;-45
2023/10/29 04:00:37;;;;;;;11.83;4.07;;;;;;;13.13;90.12;94661.34;5050747;28;20594;-44
2023/10/29 04:03:04;;;;;;;6.10;3.50;;;;;;;13.10;90.48;94665.00;5050982;28;20710;-44
2023/10/29 04:05:36;;;;;;;13.17;4.13;;;;;;;13.08;90.74;94672.03;5050742;28;20321;-43
2023/10/29 04:08:03;;;;;;;9.60;3.83;;;;;;;12.51;90.69;94585.31;5050711;28;20252;-43
2023/10/29 04:10:30;;;;;;;9.97;3.40;;;;;;;13.03;90.97;94674.25;5049903;28;20219;-43
2023/10/29 04:12:59;;;;;;;6.00;3.43;;;;;;;12.99;90.84;94672.97;5050820;28;20183;-44
2023/10/29 04:15:26;;;;;;;4.23;3.20;;;;;;;13.01;90.77;94678.75;5050448;28;20565;-45
2023/10/29 04:17:53;;;;;;;14.37;3.60;;;;;;;13.00;90.65;94680.53;5050610;28;20214;-42
2023/10/29 04:20:19;;;;;;;5.53;3.30;;;;;;;12.93;90.14;94664.13;5050328;28;20878;-44
2023/10/29 04:22:48;;;;;;;6.40;3.10;;;;;;;12.93;89.75;94669.25;5050306;28;20194;-43
2023/10/29 04:25:15;;;;;;;10.27;3.60;;;;;;;12.86;89.79;94660.53;5049948;28;20225;-47
2023/10/29 04:27:42;;;;;;;12.30;4.20;;;;;;;12.78;89.90;94663.09;5050012;28;20306;-46
2023/10/29 04:30:10;;;;;;;9.20;3.43;;;;;;;12.73;90.17;94655.00;5050383;28;20187;-44
2023/10/29 04:32:36;;;;;;;5.50;3.47;;;;;;;12.68;90.28;94657.22;5050989;28;20265;-44
2023/10/29 04:35:03;;;;;;;8.97;3.67;;;;;;;12.62;90.58;94652.72;5050762;28;20188;-43
2023/10/29 04:37:30;;;;;;;6.80;3.73;;;;;;;12.57;90.66;94655.75;5050000;28;20203;-44
2023/10/29 04:39:58;;;;;;;9.37;3.43;;;;;;;12.53;90.76;94654.44;5050068;28;20206;-45
2023/10/29 04:42:25;;;;;;;7.47;3.80;;;;;;;12.51;90.94;94661.44;5049436;28;20261;-44
2023/10/29 04:44:52;;;;;;;9.50;3.97;;;;;;;12.50;91.10;94664.97;5049888;28;20190;-44
2023/10/29 04:47:18;;;;;;;5.63;3.77;;;;;;;12.51;91.38;94669.16;5049691;28;20357;-45
2023/10/29 04:49:45;;;;;;;7.80;4.10;;;;;;;12.53;91.54;94672.38;5049690;28;20202;-44
2023/10/29 04:52:12;;;;;;;13.67;4.00;;;;;;;12.47;91.22;94671.19;5049522;28;20197;-43
2023/10/29 04:54:39;;;;;;;11.07;3.97;;;;;;;12.42;91.12;94665.72;5050141;28;20633;-45
2023/10/29 04:57:07;;;;;;;4.47;3.43;;;;;;;12.36;91.14;94675.78;5049207;28;20195;-44
2023/10/29 04:59:36;;;;;;;6.30;3.67;;;;;;;12.35;91.04;94686.97;5049613;28;20286;-44
2023/10/29 05:02:04;;;;;;;4.03;3.47;;;;;;;12.28;91.09;94684.22;5049774;28;20569;-43
2023/10/29 05:04:31;;;;;;;10.87;3.93;;;;;;;12.25;91.25;94693.00;5049700;28;20274;-45
2023/10/29 05:06:58;;;;;;;8.43;3.70;;;;;;;12.18;91.28;94689.44;5049663;28;20260;-45
2023/10/29 05:09:25;;;;;;;6.07;3.60;;;;;;;12.20;91.12;94705.47;5049478;28;20195;-44
2023/10/29 05:11:52;;;;;;;8.03;4.10;;;;;;;12.02;91.13;94671.34;5049350;28;20649;-44
2023/10/29 05:14:20;;;;;;;9.37;3.80;;;;;;;12.24;91.16;94709.34;5049905;28;20201;-43
2023/10/29 05:16:47;;;;;;;10.83;4.13;;;;;;;12.26;90.95;94697.19;5049392;28;20195;-44
2023/10/29 05:19:14;;;;;;;6.47;5.10;;;;;;;12.27;91.04;94715.94;5049694;28;20187;-43
2023/10/29 05:21:41;;;;;;;26.93;19.33;;;;;;;12.36;91.06;94739.91;5049356;28;20190;-44
2023/10/29 05:24:09;;;;;;;24.93;17.30;;;;;;;12.36;90.85;94742.47;5048643;28;20197;-43
2023/10/29 05:26:36;;;;;;;37.07;23.93;;;;;;;12.34;90.63;94731.53;5049043;28;20215;-44
2023/10/29 05:29:04;;;;;;;36.70;25.83;;;;;;;12.37;90.42;94733.81;5049445;28;20191;-44
2023/10/29 05:31:33;;;;;;;29.70;21.30;;;;;;;12.38;89.90;94720.81;5049844;28;20683;-44
2023/10/29 05:34:01;;;;;;;31.10;22.57;;;;;;;12.46;89.47;94730.34;5048968;28;20191;-43
2023/10/29 05:36:28;;;;;;;34.33;23.60;;;;;;;12.43;89.38;94728.88;5049127;28;20248;-45
2023/10/29 05:38:55;;;;;;;23.70;17.90;;;;;;;12.51;88.18;94736.66;5048599;28;20249;-43
2023/10/29 05:41:21;;;;;;;21.80;16.10;;;;;;;12.52;87.94;94747.72;5049447;28;20283;-45
2023/10/29 05:43:48;;;;;;;21.83;14.60;;;;;;;12.49;87.97;94743.69;5049135;28;20191;-44
2023/10/29 05:46:15;;;;;;;25.33;15.40;;;;;;;12.48;87.86;94742.09;5049177;28;20233;-44
2023/10/29 05:48:44;;;;;;;20.63;12.50;;;;;;;12.49;87.98;94750.59;5048861;28;20198;-45
2023/10/29 05:51:12;;;;;;;14.00;11.07;;;;;;;12.55;88.00;94752.53;5049176;28;20190;-45
2023/10/29 05:53:39;;;;;;;17.83;11.70;;;;;;;12.56;87.77;94743.88;5048932;28;20678;-43
2023/10/29 05:56:07;;;;;;;14.63;9.67;;;;;;;12.67;87.58;94761.63;5048605;28;20256;-45
2023/10/29 05:58:34;;;;;;;18.47;10.30;;;;;;;12.73;87.58;94766.16;5049241;28;20535;-45
2023/10/29 06:01:01;;;;;;;15.93;8.30;;;;;;;12.79;87.55;94765.56;5049066;28;20230;-43
2023/10/29 06:03:28;;;;;;;13.83;8.53;;;;;;;12.92;87.06;94770.31;5049549;28;20563;-43
2023/10/29 06:05:56;;;;;;;11.53;7.23;;;;;;;12.97;86.54;94780.13;5049019;28;20215;-43
2023/10/29 06:08:23;;;;;;;13.07;7.50;;;;;;;13.07;86.17;94789.34;5049021;28;20214;-45
2023/10/29 06:10:50;;;;;;;17.93;9.67;;;;;;;13.23;85.18;94783.53;5048850;28;20195;-44
2023/10/29 06:13:17;;;;;;;14.20;11.40;;;;;;;13.45;84.29;94786.56;5048996;28;20229;-44
2023/10/29 06:15:44;;;;;;;17.33;10.27;;;;;;;13.66;83.21;94793.88;5048706;28;20194;-44
2023/10/29 06:18:11;;;;;;;17.10;8.83;;;;;;;13.87;82.38;94785.78;5049245;28;20188;-45
2023/10/29 06:20:40;;;;;;;10.33;8.20;;;;;;;14.12;81.28;94789.22;5049671;28;20639;-44
2023/10/29 06:23:09;;;;;;;11.60;7.97;;;;;;;13.81;80.28;94703.16;5050207;28;20228;-44
2023/10/29 06:25:36;;;;;;;12.07;7.10;;;;;;;14.52;80.01;94784.19;5049700;28;20179;-43
2023/10/29 06:28:03;;;;;;;11.37;7.00;;;;;;;14.79;79.05;94780.50;5050968;28;20261;-44
2023/10/29 06:30:29;;;;;;;7.77;5.30;;;;;;;15.02;78.10;94766.94;5057196;28;20218;-46
2023/10/29 06:32:59;;;;;;;9.87;5.90;;;;;;;15.56;76.08;94798.91;5057118;28;20191;-46
2023/10/29 06:35:26;;;;;;;13.33;6.03;;;;;;;15.92;74.69;94810.56;5061025;28;20199;-44
2023/10/29 06:37:53;;;;;;;12.87;4.93;;;;;;;16.21;73.45;94807.38;5058550;28;20198;-44
2023/10/29 06:40:21;;;;;;;11.30;5.10;;;;;;;16.52;72.74;94815.09;5053244;28;20198;-44
2023/10/29 06:42:48;;;;;;;7.77;5.23;;;;;;;16.85;70.78;94814.91;5052570;28;20274;-45
2023/10/29 06:45:16;;;;;;;11.33;5.20;;;;;;;17.07;69.58;94814.09;5052269;28;20187;-45
2023/10/29 06:47:43;;;;;;;8.13;5.13;;;;;;;17.34;68.86;94815.28;5052147;28;20249;-45
2023/10/29 06:50:10;;;;;;;7.47;4.80;;;;;;;17.66;68.11;94810.75;5052407;28;20198;-45
2023/10/29 06:52:37;;;;;;;5.97;4.03;;;;;;;18.03;66.51;94818.47;5052418;28;20691;-45
2023/10/29 06:55:05;;;;;;;7.10;4.47;;;;;;;18.40;65.94;94821.88;5052669;28;20194;-45
2023/10/29 06:57:33;;;;;;;10.63;5.07;;;;;;;18.73;64.68;94821.44;5051637;28;20191;-45
2023/10/29 07:00:02;;;;;;;6.17;4.20;;;;;;;19.04;63.61;94821.13;5052341;28;20225;-45
2023/10/29 07:02:29;;;;;;;10.37;4.53;;;;;;;19.31;62.36;94827.34;5051991;28;20214;-44
2023/10/29 07:04:58;;;;;;;8.80;4.70;;;;;;;19.34;61.33;94805.41;5051914;28;20195;-45
2023/10/29 07:07:29;;;;;;;7.40;4.50;;;;;;;19.61;60.72;94843.56;5051712;28;20268;-46
2023/10/29 07:09:56;;;;;;;7.40;4.40;;;;;;;19.53;60.06;94825.50;5052575;28;20195;-45
2023/10/29 07:12:23;;;;;;;9.53;4.60;;;;;;;19.44;59.75;94822.25;5051806;28;20277;-44
2023/10/29 07:14:51;;;;;;;8.23;4.77;;;;;;;19.55;59.60;94839.88;5052106;28;20257;-44
2023/10/29 07:17:18;;;;;;;8.07;4.87;;;;;;;19.62;59.60;94836.56;5052236;28;20189;-46
2023/10/29 07:19:45;;;;;;;9.93;4.97;;;;;;;19.61;59.51;94834.97;5051730;28;20207;-44
2023/10/29 07:22:11;;;;;;;9.70;5.23;;;;;;;19.66;59.60;94835.19;5052555;28;20195;-45
2023/10/29 07:24:38;;;;;;;8.70;4.83;;;;;;;19.83;59.03;94831.31;5052669;28;20191;-46
2023/10/29 07:27:05;;;;;;;8.27;4.90;;;;;;;19.81;58.12;94807.31;5052944;28;20250;-44
2023/10/29 07:29:32;;;;;;;11.20;5.63;;;;;;;20.23;58.05;94841.88;5052870;28;20618;-45
2023/10/29 07:32:00;;;;;;;11.47;5.77;;;;;;;20.27;57.83;94846.50;5052558;28;20287;-44
2023/10/29 07:34:27;;;;;;;12.27;5.20;;;;;;;20.38;57.95;94849.53;5051579;28;20199;-44
2023/10/29 07:36:54;;;;;;;8.55;4.15;;;;;;;20.54;56.95;94844.81;5051834;28;20191;-46
2023/10/29 07:39:21;;;;;;;8.63;4.40;;;;;;;20.60;56.45;94848.44;5051361;28;20693;-45
2023/10/29 07:41:47;;;;;;;7.63;4.03;;;;;;;20.65;56.05;94847.88;5051739;28;20194;-46
2023/10/29 07:44:14;;;;;;;11.00;4.10;;;;;;;20.62;56.02;94846.44;5051153;28;20198;-46
2023/10/29 07:46:41;;;;;;;9.33;3.83;;;;;;;20.66;55.73;94855.44;5050758;28;20223;-46
2023/10/29 07:49:09;;;;;;;7.70;3.22;;;;;;;20.58;54.61;94858.22;5051810;28;20183;-45
2023/10/29 07:51:36;;;;;;;6.25;2.95;;;;;;;20.36;55.06;94849.72;5052800;28;20191;-46
2023/10/29 07:54:03;;;;;;;5.70;3.13;;;;;;;20.25;55.60;94853.69;5054726;28;20213;-45
2023/10/29 07:56:30;;;;;;;6.40;3.40;;;;;;;20.09;56.04;94843.63;5051718;28;20183;-45
2023/10/29 07:58:57;;;;;;;8.80;3.00;;;;;;;19.90;56.56;94837.31;5051050;28;20755;-45
2023/10/29 08:01:24;;;;;;;4.70;3.30;;;;;;;19.88;57.41;94838.53;5050795;28;20190;-45
2023/10/29 08:03:51;;;;;;;5.63;3.17;;;;;;;19.82;57.80;94834.91;5050763;28;20203;-43
2023/10/29 08:06:19;;;;;;;8.30;3.70;;;;;;;19.78;57.63;94828.50;5050890;28;20278;-46
2023/10/29 08:08:46;;;;;;;5.78;3.47;;;;;;;19.77;57.98;94837.25;5050989;28;20249;-44
2023/10/29 08:11:20;;;;;;;5.97;3.70;;;;;;;19.77;58.17;94827.69;5050593;28;20199;-44
2023/10/29 08:13:47;;;;;;;7.20;3.78;;;;;;;19.86;57.50;94832.69;5050799;28;20179;-45
2023/10/29 08:16:14;;;;;;;13.20;4.10;;;;;;;19.66;57.77;94811.84;5050569;28;20658;-44
2023/10/29 08:18:41;;;;;;;12.93;4.28;;;;;;;19.85;57.99;94834.50;5051062;28;20319;-46
2023/10/29 08:21:08;;;;;;;7.33;3.93;;;;;;;19.94;57.73;94842.94;5050364;28;20721;-47
2023/10/29 08:23:37;;;;;;;10.38;4.20;;;;;;;19.95;57.76;94841.97;5050503;28;20229;-45
2023/10/29 08:26:04;;;;;;;9.57;4.05;;;;;;;19.92;56.63;94837.16;5050159;28;20272;-45
2023/10/29 08:28:31;;;;;;;9.50;3.53;;;;;;;19.88;57.00;94859.28;5050295;28;20250;-44
2023/10/29 08:30:58;;;;;;;9.10;3.80;;;;;;;19.85;56.70;94849.28;5050678;28;20194;-45
2023/10/29 08:33:25;;;;;;;6.28;3.53;;;;;;;19.80;57.06;94852.44;5050097;28;20191;-45
2023/10/29 08:35:51;;;;;;;8.85;5.15;;;;;;;19.75;57.33;94850.44;5050267;28;20655;-43
2023/10/29 08:38:19;;;;;;;5.38;3.40;;;;;;;19.76;56.69;94846.03;5050119;28;20191;-45
2023/10/29 08:40:47;;;;;;;11.10;3.65;;;;;;;19.68;57.09;94844.38;5050582;28;20194;-46
2023/10/29 08:43:14;;;;;;;11.73;4.82;;;;;;;19.70;57.29;94846.81;5050578;28;20221;-43
2023/10/29 08:45:41;;;;;;;9.95;4.38;;;;;;;19.71;57.54;94853.59;5057296;28;20642;-47
2023/10/29 08:48:07;;;;;;;7.22;4.20;;;;;;;19.70;57.65;94854.59;5058325;28;20284;-45
2023/10/29 08:50:34;;;;;;;7.85;3.95;;;;;;;19.72;57.24;94863.78;5055376;28;20671;-44
2023/10/29 08:53:01;;;;;;;9.60;4.30;;;;;;;19.66;57.34;94853.38;5049697;28;20184;-45
2023/10/29 08:55:27;;;;;;;6.28;3.47;;;;;;;19.79;57.06;94869.81;5049894;28;20190;-45
2023/10/29 08:57:56;;;;;;;8.05;3.40;;;;;;;19.79;57.53;94863.81;5048686;28;20201;-45
2023/10/29 09:00:23;;;;;;;8.37;3.77;;;;;;;19.71;57.66;94856.97;5050111;28;20608;-45
2023/10/29 09:02:50;;;;;;;10.90;4.32;;;;;;;19.78;57.78;94859.63;5049366;28;20194;-45
2023/10/29 09:05:17;;;;;;;7.07;3.70;;;;;;;19.73;57.85;94849.81;5049779;28;20213;-45
2023/10/29 09:07:44;;;;;;;12.23;4.17;;;;;;;19.76;57.45;94849.44;5049885;28;20309;-46
2023/10/29 09:10:11;;;;;;;13.67;4.03;;;;;;;19.79;57.40;94843.06;5049337;28;20198;-45
2023/10/29 09:12:38;;;;;;;5.77;4.13;;;;;;;19.84;57.24;94851.06;5049796;28;20198;-45
2023/10/29 09:15:07;;;;;;;9.13;4.13;;;;;;;19.86;57.73;94850.88;5049788;28;20574;-45
2023/10/29 09:17:34;;;;;;;8.03;4.50;;;;;;;19.89;56.98;94856.50;5049476;28;20183;-45
2023/10/29 09:20:01;;;;;;;9.20;3.95;;;;;;;19.95;56.93;94853.16;5049734;28;20182;-45
2023/10/29 09:22:27;;;;;;;9.63;4.15;;;;;;;19.94;57.02;94853.31;5049727;28;20685;-45
2023/10/29 09:24:54;;;;;;;8.23;4.05;;;;;;;19.95;57.16;94852.34;5049273;28;21010;-44
2023/10/29 09:27:21;;;;;;;5.95;4.00;;;;;;;20.01;57.08;94852.38;5049504;28;20321;-45
2023/10/29 09:29:48;;;;;;;5.38;3.97;;;;;;;20.06;56.51;94854.38;5049809;28;20191;-44
2023/10/29 09:32:17;;;;;;;9.68;3.90;;;;;;;20.09;56.68;94853.22;5049560;28;20222;-47
2023/10/29 09:34:43;;;;;;;7.40;3.80;;;;;;;20.15;56.43;94852.44;5049246;28;20282;-44
2023/10/29 09:37:10;;;;;;;6.28;3.33;;;;;;;20.21;55.96;94849.88;5049469;28;20628;-44
2023/10/29 09:39:37;;;;;;;9.13;3.40;;;;;;;20.27;56.03;94845.69;5049986;28;20616;-45
2023/10/29 09:42:08;;;;;;;7.18;3.25;;;;;;;20.22;55.84;94832.50;5050854;28;20191;-44
2023/10/29 09:44:35;;;;;;;4.32;2.67;;;;;;;20.28;55.76;94835.09;5050254;28;20191;-44
2023/10/29 09:47:12;;;;;;;4.72;2.67;;;;;;;20.32;55.50;94830.31;5049794;28;20234;-44
2023/10/29 09:49:41;;;;;;;6.32;2.72;;;;;;;20.39;55.30;94831.16;5049285;28;20183;-44
2023/10/29 09:52:08;;;;;;;7.15;3.05;;;;;;;20.42;55.58;94835.97;5049001;28;20194;-45
2023/10/29 09:54:36;;;;;;;6.93;2.90;;;;;;;20.39;55.36;94815.56;5049178;28;20195;-44
2023/10/29 09:57:03;;;;;;;12.45;3.17;;;;;;;20.57;55.02;94824.66;5048778;28;20202;-45
2023/10/29 09:59:30;;;;;;;5.70;2.50;;;;;;;20.62;54.94;94817.06;5049522;28;20209;-45
2023/10/29 10:01:57;;;;;;;4.03;2.65;;;;;;;20.60;54.78;94804.28;5048856;28;20214;-44
2023/10/29 10:04:24;;;;;;;6.70;3.03;;;;;;;20.74;53.64;94816.28;5049048;28;20253;-44
2023/10/29 10:06:54;;;;;;;5.85;2.30;;;;;;;20.68;53.82;94809.28;5048771;28;20190;-45
2023/10/29 10:09:21;;;;;;;4.95;2.75;;;;;;;20.80;53.17;94812.09;5050660;28;20194;-43
2023/10/29 10:12:03;;;;;;;4.25;2.40;;;;;;;20.85;53.21;94798.50;5052795;28;20191;-45
2023/10/29 10:14:33;;;;;;;7.85;3.13;;;;;;;20.83;52.98;94787.50;5053521;28;20277;-45
2023/10/29 10:17:10;;;;;;;7.03;2.90;;;;;;;21.03;53.06;94802.13;5053266;28;20187;-45
2023/10/29 10:19:38;;;;;;;9.65;2.55;;;;;;;21.15;51.95;94809.31;5053358;28;20179;-46
2023/10/29 10:22:07;;;;;;;5.50;2.42;;;;;;;21.13;51.96;94783.53;5053606;28;20202;-46
2023/10/29 10:24:38;;;;;;;6.95;3.10;;;;;;;21.17;52.39;94791.72;5053471;28;20206;-45
2023/10/29 10:27:06;;;;;;;11.90;3.40;;;;;;;21.20;52.17;94789.53;5053036;28;20321;-45
2023/10/29 10:29:33;;;;;;;6.60;3.10;;;;;;;21.11;51.36;94769.91;5053920;28;20202;-46
2023/10/29 10:32:02;;;;;;;9.07;4.05;;;;;;;21.28;51.61;94793.72;5054342;28;20183;-46
2023/10/29 10:34:31;;;;;;;6.90;2.80;;;;;;;21.34;51.51;94792.16;5053911;28;20188;-45
2023/10/29 10:37:00;;;;;;;10.10;2.80;;;;;;;21.37;51.21;94787.31;5053215;28;20198;-47
2023/10/29 10:39:37;;;;;;;7.70;3.47;;;;;;;21.40;51.11;94784.31;5053976;28;20223;-45
2023/10/29 10:42:05;;;;;;;8.10;2.97;;;;;;;21.43;51.10;94789.13;5053374;28;20199;-45
2023/10/29 10:44:32;;;;;;;7.70;2.78;;;;;;;21.01;51.22;94720.09;5052602;28;20195;-45
2023/10/29 10:47:02;;;;;;;8.52;2.78;;;;;;;21.53;50.81;94786.09;5054874;28;20194;-45
2023/10/29 10:49:31;;;;;;;4.45;2.50;;;;;;;21.57;50.52;94782.09;5053381;28;20241;-44
2023/10/29 10:52:01;;;;;;;4.72;2.13;;;;;;;21.63;50.44;94786.50;5054848;28;20203;-48
2023/10/29 10:54:29;;;;;;;8.60;2.97;;;;;;;21.67;50.54;94781.66;5053052;28;20274;-50
2023/10/29 10:56:57;;;;;;;10.00;3.22;;;;;;;21.73;50.54;94776.47;5064292;28;20187;-45
2023/10/29 10:59:24;;;;;;;7.35;3.03;;;;;;;21.81;50.64;94782.47;5064562;28;20721;-46
2023/10/29 11:01:51;;;;;;;7.10;2.65;;;;;;;21.82;50.61;94774.44;5052038;28;20195;-44
2023/10/29 11:04:21;;;;;;;6.00;2.97;;;;;;;21.92;48.98;94779.19;5052317;28;20657;-45
2023/10/29 11:06:49;;;;;;;4.60;2.47;;;;;;;21.90;48.86;94773.41;5052097;28;20194;-45
2023/10/29 11:09:20;;;;;;;6.32;3.00;;;;;;;21.89;49.18;94775.22;5051931;28;20420;-44
2023/10/29 11:11:50;;;;;;;6.32;2.70;;;;;;;21.91;49.28;94775.81;5051685;28;20191;-45
2023/10/29 11:14:19;;;;;;;9.95;2.83;;;;;;;21.96;48.67;94767.38;5052608;28;20187;-46
2023/10/29 11:16:53;;;;;;;5.63;2.35;;;;;;;21.79;48.79;94741.78;5051941;28;20198;-45
2023/10/29 11:19:46;;;;;;;7.55;3.00;;;;;;;22.09;48.15;94766.53;5051801;28;20647;-46
2023/10/29 11:22:15;;;;;;;3.80;2.30;;;;;;;22.04;48.11;94752.31;5050988;28;20184;-46
2023/10/29 11:24:42;;;;;;;5.65;2.70;;;;;;;22.11;48.18;94761.91;5051761;28;20191;-45
2023/10/29 11:27:35;;;;;;;8.05;2.40;;;;;;;22.17;47.86;94761.13;5051144;28;20223;-46
2023/10/29 11:30:16;;;;;;;6.05;2.65;;;;;;;22.26;46.60;94755.44;5051778;28;20191;-44
2023/10/29 11:32:43;;;;;;;5.07;3.00;;;;;;;22.32;46.43;94760.81;5051612;28;20191;-44